createdAt,value
2019-06-26T00:00:10.768Z,5.90
2019-06-26T00:02:18.172Z,6.22
2019-06-26T00:04:25.628Z,7.33
2019-06-26T00:06:33.374Z,6.62
2019-06-26T00:08:41.090Z,6.60
2019-06-26T00:10:49.047Z,6.33
2019-06-26T00:12:56.697Z,6.50
2019-06-26T00:15:04.234Z,6.37
2019-06-26T00:17:11.590Z,6.45
2019-06-26T00:19:18.984Z,7.20
2019-06-26T00:21:26.351Z,6.55
2019-06-26T00:23:34.871Z,6.78
2019-06-26T00:25:42.842Z,6.92
2019-06-26T00:27:50.225Z,6.65
2019-06-26T00:29:57.559Z,6.47
2019-06-26T00:32:04.955Z,6.72
2019-06-26T00:34:12.427Z,6.47
2019-06-26T00:36:20.293Z,6.78
2019-06-26T00:38:28.069Z,6.47
2019-06-26T00:40:35.922Z,6.30
2019-06-26T00:42:43.705Z,7.08
2019-06-26T00:44:51.516Z,6.70
2019-06-26T00:46:59.273Z,7.05
2019-06-26T00:49:06.817Z,6.85
2019-06-26T00:51:14.601Z,7.05
2019-06-26T00:53:21.987Z,6.67
2019-06-26T00:55:29.336Z,6.92
2019-06-26T00:57:36.989Z,7.12
2019-06-26T00:59:44.549Z,7.22
2019-06-26T01:01:52.599Z,6.95
2019-06-26T01:04:04.435Z,7.37
2019-06-26T01:06:31.007Z,7.47
2019-06-26T01:08:38.707Z,7.40
2019-06-26T01:10:46.349Z,7.37
2019-06-26T01:12:54.664Z,7.30
2019-06-26T01:15:02.395Z,7.33
2019-06-26T01:17:10.143Z,7.22
2019-06-26T01:19:17.909Z,7.60
2019-06-26T01:21:25.666Z,6.92
2019-06-26T01:23:33.379Z,7.17
2019-06-26T01:25:41.280Z,7.00
2019-06-26T01:27:49.478Z,6.97
2019-06-26T01:29:56.961Z,7.40
2019-06-26T01:32:04.627Z,7.87
2019-06-26T01:34:12.394Z,7.37
2019-06-26T01:36:20.074Z,6.95
2019-06-26T01:38:27.527Z,7.37
2019-06-26T01:40:34.879Z,7.15
2019-06-26T01:42:42.290Z,7.67
2019-06-26T01:44:49.702Z,7.45
2019-06-26T01:46:57.081Z,7.60
2019-06-26T01:49:04.675Z,7.75
2019-06-26T01:51:12.284Z,8.05
2019-06-26T01:53:20.009Z,7.47
2019-06-26T01:55:27.699Z,8.20
2019-06-26T01:57:35.611Z,8.20
2019-06-26T01:59:43.323Z,7.75
2019-06-26T02:01:50.725Z,7.58
2019-06-26T02:03:58.126Z,7.40
2019-06-26T02:06:05.634Z,7.40
2019-06-26T02:08:13.068Z,7.53
2019-06-26T02:10:20.935Z,7.55
2019-06-26T02:12:28.383Z,7.05
2019-06-26T02:14:35.813Z,7.72
2019-06-26T02:16:43.504Z,7.95
2019-06-26T02:18:55.335Z,8.23
2019-06-26T02:21:03.205Z,8.63
2019-06-26T02:23:10.952Z,7.53
2019-06-26T02:25:18.916Z,8.03
2019-06-26T02:27:26.742Z,7.97
2019-06-26T02:29:34.551Z,8.05
2019-06-26T02:31:42.028Z,8.18
2019-06-26T02:33:49.470Z,8.05
2019-06-26T02:35:56.765Z,7.97
2019-06-26T02:38:04.171Z,8.15
2019-06-26T02:40:12.359Z,8.13
2019-06-26T02:42:19.799Z,7.90
2019-06-26T02:44:27.225Z,8.15
2019-06-26T02:46:34.712Z,7.62
2019-06-26T02:48:42.110Z,7.55
2019-06-26T02:50:49.993Z,8.18
2019-06-26T02:52:57.717Z,8.58
2019-06-26T02:55:05.860Z,8.30
2019-06-26T02:57:13.308Z,7.90
2019-06-26T02:59:22.063Z,8.18
2019-06-26T03:01:29.807Z,8.38
2019-06-26T03:03:37.523Z,8.73
2019-06-26T03:05:44.854Z,8.05
2019-06-26T03:07:52.427Z,8.75
2019-06-26T03:10:00.152Z,8.88
2019-06-26T03:12:08.599Z,8.80
2019-06-26T03:14:16.292Z,9.10
2019-06-26T03:16:23.640Z,8.55
2019-06-26T03:18:31.013Z,8.30
2019-06-26T03:20:43.844Z,8.23
2019-06-26T03:22:51.364Z,8.98
2019-06-26T03:24:58.772Z,8.95
2019-06-26T03:27:09.038Z,8.58
2019-06-26T03:29:15.656Z,9.45
2019-06-26T03:31:23.185Z,8.83
2019-06-26T03:33:30.609Z,8.73
2019-06-26T03:35:40.730Z,8.83
2019-06-26T03:37:47.652Z,9.65
2019-06-26T03:39:55.369Z,9.25
2019-06-26T03:42:02.845Z,9.03
2019-06-26T03:44:10.320Z,9.03
2019-06-26T03:46:17.773Z,8.90
2019-06-26T03:48:25.177Z,9.33
2019-06-26T03:50:32.605Z,9.63
2019-06-26T03:52:40.233Z,9.43
2019-06-26T03:54:48.061Z,9.10
2019-06-26T03:56:55.782Z,9.68
2019-06-26T03:59:03.505Z,9.53
2019-06-26T04:01:11.336Z,10.40
2019-06-26T04:03:19.017Z,9.45
2019-06-26T04:05:26.890Z,8.98
2019-06-26T04:07:34.529Z,9.55
2019-06-26T04:09:42.216Z,9.38
2019-06-26T04:11:50.142Z,10.35
2019-06-26T04:13:57.771Z,9.53
2019-06-26T04:16:05.830Z,9.85
2019-06-26T04:18:13.257Z,9.55
2019-06-26T04:20:21.137Z,10.25
2019-06-26T04:22:28.944Z,9.85
2019-06-26T04:24:36.523Z,10.23
2019-06-26T04:26:44.122Z,10.03
2019-06-26T04:28:51.511Z,10.25
2019-06-26T04:30:58.898Z,10.90
2019-06-26T04:33:06.383Z,9.85
2019-06-26T04:35:15.232Z,10.13
2019-06-26T04:37:22.728Z,10.28
2019-06-26T04:39:30.256Z,10.90
2019-06-26T04:41:37.746Z,9.73
2019-06-26T04:43:45.256Z,9.93
2019-06-26T04:45:57.950Z,10.60
2019-06-26T04:48:02.782Z,10.45
2019-06-26T04:50:10.802Z,10.35
2019-06-26T04:52:18.587Z,10.68
2019-06-26T04:54:26.331Z,10.25
2019-06-26T04:56:34.230Z,10.63
2019-06-26T04:58:42.053Z,10.05
2019-06-26T05:00:49.664Z,10.70
2019-06-26T05:02:57.445Z,11.08
2019-06-26T05:05:05.994Z,10.18
2019-06-26T05:07:13.521Z,10.30
2019-06-26T05:09:21.344Z,10.80
2019-06-26T05:11:29.157Z,10.85
2019-06-26T05:13:36.674Z,11.40
2019-06-26T05:15:44.241Z,10.38
2019-06-26T05:17:51.938Z,11.22
2019-06-26T05:20:00.124Z,11.93
2019-06-26T05:22:08.048Z,11.95
2019-06-26T05:24:15.567Z,10.88
2019-06-26T05:26:23.179Z,11.40
2019-06-26T05:28:30.804Z,11.30
2019-06-26T05:30:38.615Z,11.85
2019-06-26T05:32:46.425Z,12.55
2019-06-26T05:34:54.109Z,11.50
2019-06-26T05:37:01.881Z,12.33
2019-06-26T05:39:10.181Z,12.50
2019-06-26T05:41:18.045Z,12.05
2019-06-26T05:43:26.110Z,12.50
2019-06-26T05:45:33.989Z,11.97
2019-06-26T05:47:41.922Z,12.80
2019-06-26T05:49:49.608Z,12.40
2019-06-26T05:51:57.345Z,12.60
2019-06-26T05:54:05.404Z,13.15
2019-06-26T05:56:13.117Z,13.45
2019-06-26T05:58:20.888Z,12.98
2019-06-26T06:00:28.820Z,13.30
2019-06-26T06:02:36.667Z,14.13
2019-06-26T06:04:44.669Z,13.93
2019-06-26T06:06:52.584Z,13.22
2019-06-26T06:09:00.262Z,13.83
2019-06-26T06:11:08.019Z,13.53
2019-06-26T06:13:15.818Z,13.13
2019-06-26T06:15:41.246Z,13.80
2019-06-26T06:17:49.084Z,14.43
2019-06-26T06:19:56.806Z,14.10
2019-06-26T06:22:04.672Z,14.25
2019-06-26T06:24:12.652Z,14.75
2019-06-26T06:26:20.476Z,14.95
2019-06-26T06:28:28.342Z,14.73
2019-06-26T06:30:36.355Z,14.58
2019-06-26T06:32:44.758Z,14.60
2019-06-26T06:34:52.591Z,15.13
2019-06-26T06:37:00.480Z,14.75
2019-06-26T06:39:09.279Z,14.38
2019-06-26T06:41:17.109Z,15.30
2019-06-26T06:43:25.019Z,14.07
2019-06-26T06:45:33.086Z,14.83
2019-06-26T06:47:40.850Z,14.47
2019-06-26T06:49:48.650Z,14.50
2019-06-26T06:51:56.485Z,15.08
2019-06-26T06:54:04.364Z,14.68
2019-06-26T06:56:12.318Z,15.35
2019-06-26T06:58:20.081Z,14.65
2019-06-26T07:00:28.355Z,14.58
2019-06-26T07:02:36.501Z,14.25
2019-06-26T07:04:44.623Z,15.63
2019-06-26T07:06:52.885Z,14.65
2019-06-26T07:09:01.283Z,14.55
2019-06-26T07:11:09.146Z,15.20
2019-06-26T07:13:16.863Z,15.23
2019-06-26T07:15:25.640Z,15.65
2019-06-26T07:17:33.724Z,14.65
2019-06-26T07:19:41.782Z,15.18
2019-06-26T07:21:49.849Z,15.23
2019-06-26T07:23:57.959Z,14.07
2019-06-26T07:26:05.944Z,14.68
2019-06-26T07:28:13.835Z,14.60
2019-06-26T07:30:22.478Z,14.35
2019-06-26T07:32:30.299Z,14.53
2019-06-26T07:34:38.168Z,15.13
2019-06-26T07:36:46.172Z,14.73
2019-06-26T07:38:54.901Z,14.38
2019-06-26T07:41:03.126Z,14.78
2019-06-26T07:43:11.258Z,14.58
2019-06-26T07:45:19.554Z,14.45
2019-06-26T07:47:41.801Z,14.78
2019-06-26T07:49:37.177Z,15.05
2019-06-26T07:51:45.060Z,14.83
2019-06-26T07:53:52.919Z,15.03
2019-06-26T07:56:42.597Z,15.20
2019-06-26T07:58:50.857Z,15.08
2019-06-26T08:00:58.546Z,14.53
2019-06-26T08:03:06.279Z,14.60
2019-06-26T08:05:14.851Z,15.20
2019-06-26T08:07:22.592Z,14.43
2019-06-26T08:09:30.266Z,14.28
2019-06-26T08:11:37.879Z,14.03
2019-06-26T08:13:45.556Z,15.15
2019-06-26T08:15:53.342Z,14.87
2019-06-26T08:18:01.712Z,13.88
2019-06-26T08:20:09.879Z,13.90
2019-06-26T08:22:17.300Z,15.53
2019-06-26T08:24:25.098Z,14.78
2019-06-26T08:26:32.936Z,15.30
2019-06-26T08:28:40.775Z,13.72
2019-06-26T08:30:48.285Z,14.50
2019-06-26T08:32:55.816Z,14.85
2019-06-26T08:35:03.915Z,14.78
2019-06-26T08:37:11.416Z,14.28
2019-06-26T08:39:18.848Z,14.75
2019-06-26T08:41:26.452Z,14.63
2019-06-26T08:43:34.417Z,13.13
2019-06-26T08:48:22.625Z,13.60
2019-06-26T08:50:23.178Z,13.15
2019-06-26T08:52:30.671Z,14.05
2019-06-26T08:54:38.248Z,13.25
2019-06-26T08:56:46.145Z,13.78
2019-06-26T08:58:53.858Z,13.35
2019-06-26T09:01:01.616Z,13.38
2019-06-26T09:03:09.215Z,13.78
2019-06-26T09:05:18.115Z,12.68
2019-06-26T09:07:25.663Z,13.18
2019-06-26T09:09:33.175Z,12.93
2019-06-26T09:11:41.134Z,12.60
2019-06-26T09:13:48.650Z,13.70
2019-06-26T09:15:56.214Z,13.25
2019-06-26T09:18:03.696Z,12.80
2019-06-26T09:20:11.731Z,13.53
2019-06-26T09:22:19.312Z,13.53
2019-06-26T09:24:27.013Z,13.20
2019-06-26T09:26:35.787Z,13.32
2019-06-26T09:28:43.428Z,12.53
2019-06-26T09:30:51.226Z,13.08
2019-06-26T09:32:58.713Z,13.62
2019-06-26T09:35:06.992Z,13.68
2019-06-26T09:37:14.541Z,13.93
2019-06-26T09:39:21.974Z,13.20
2019-06-26T09:41:29.555Z,13.40
2019-06-26T09:43:37.073Z,14.25
2019-06-26T09:45:44.574Z,13.68
2019-06-26T09:47:53.162Z,13.80
2019-06-26T09:50:00.822Z,13.35
2019-06-26T09:52:08.960Z,14.13
2019-06-26T09:54:16.448Z,13.25
2019-06-26T09:56:23.967Z,12.55
2019-06-26T09:58:31.498Z,12.85
2019-06-26T10:00:39.375Z,12.18
2019-06-26T10:02:46.808Z,12.68
2019-06-26T10:04:54.278Z,12.90
2019-06-26T10:07:02.062Z,13.32
2019-06-26T10:09:10.754Z,12.60
2019-06-26T10:11:18.340Z,12.45
2019-06-26T10:13:25.953Z,12.20
2019-06-26T10:15:34.458Z,12.40
2019-06-26T10:17:42.606Z,11.88
2019-06-26T10:19:53.895Z,12.63
2019-06-26T10:22:00.400Z,12.88
2019-06-26T10:24:08.117Z,12.50
2019-06-26T10:26:15.821Z,12.70
2019-06-26T10:28:23.560Z,12.37
2019-06-26T10:30:31.345Z,11.85
2019-06-26T10:32:38.971Z,11.28
2019-06-26T10:34:47.798Z,12.55
2019-06-26T10:36:56.206Z,12.82
2019-06-26T10:39:11.304Z,12.00
2019-06-26T10:41:23.573Z,12.15
2019-06-26T10:43:34.105Z,12.82
2019-06-26T10:45:41.625Z,12.58
2019-06-26T10:47:49.075Z,12.73
2019-06-26T10:49:56.468Z,12.98
2019-06-26T10:52:05.807Z,13.03
2019-06-26T10:54:13.403Z,13.35
2019-06-26T10:56:21.087Z,13.53
2019-06-26T10:58:28.940Z,13.43
2019-06-26T11:00:36.648Z,12.85
2019-06-26T11:02:44.249Z,14.18
2019-06-26T11:04:51.759Z,14.10
2019-06-26T11:06:59.683Z,12.82
2019-06-26T11:09:10.395Z,12.82
2019-06-26T11:11:18.072Z,13.30
2019-06-26T11:13:25.449Z,13.68
2019-06-26T11:15:33.036Z,13.35
2019-06-26T11:17:42.640Z,14.30
2019-06-26T11:19:50.119Z,13.78
2019-06-26T11:21:57.768Z,14.15
2019-06-26T11:24:05.437Z,14.20
2019-06-26T11:26:12.885Z,14.58
2019-06-26T11:28:20.368Z,14.55
2019-06-26T11:30:28.316Z,13.75
2019-06-26T11:32:35.920Z,15.03
2019-06-26T11:34:43.555Z,14.25
2019-06-26T11:37:03.066Z,14.20
2019-06-26T11:39:00.795Z,14.38
2019-06-26T11:41:08.855Z,13.30
2019-06-26T11:43:16.581Z,12.53
2019-06-26T11:45:24.381Z,12.13
2019-06-26T11:47:31.962Z,11.50
2019-06-26T11:49:39.408Z,11.83
2019-06-26T11:51:47.040Z,12.05
2019-06-26T11:53:54.527Z,11.15
2019-06-26T11:56:02.134Z,11.20
2019-06-26T11:58:09.896Z,11.18
2019-06-26T12:00:20.055Z,11.00
2019-06-26T12:02:27.566Z,11.40
2019-06-26T12:04:35.199Z,11.28
2019-06-26T12:06:45.914Z,11.55
2019-06-26T12:08:52.267Z,12.60
2019-06-26T12:11:00.079Z,11.43
2019-06-26T12:13:07.714Z,11.28
2019-06-26T12:15:18.916Z,11.65
2019-06-26T12:17:26.659Z,12.70
2019-06-26T12:19:34.551Z,12.23
2019-06-26T12:21:42.327Z,12.30
2019-06-26T12:23:50.069Z,11.95
2019-06-26T12:25:57.594Z,11.68
2019-06-26T12:28:05.483Z,11.48
2019-06-26T12:30:13.497Z,11.18
2019-06-26T12:32:21.056Z,10.93
2019-06-26T12:34:28.750Z,10.98
2019-06-26T12:36:36.607Z,11.85
2019-06-26T12:38:44.189Z,12.25
2019-06-26T12:40:51.719Z,12.25
2019-06-26T12:42:59.247Z,10.50
2019-06-26T12:45:08.229Z,11.45
2019-06-26T12:47:15.923Z,11.50
2019-06-26T12:49:23.605Z,11.88
2019-06-26T12:51:31.385Z,11.95
2019-06-26T12:53:39.005Z,11.38
2019-06-26T12:55:46.525Z,11.28
2019-06-26T12:58:02.449Z,11.03
2019-06-26T13:00:03.731Z,10.05
2019-06-26T13:02:11.515Z,9.03
2019-06-26T13:04:20.210Z,8.73
2019-06-26T13:06:28.057Z,8.20
2019-06-26T13:08:35.643Z,7.58
2019-06-26T13:10:49.661Z,7.83
2019-06-26T13:12:53.124Z,7.90
2019-06-26T13:15:00.767Z,8.20
2019-06-26T13:17:08.337Z,7.42
2019-06-26T13:19:16.114Z,8.25
2019-06-26T13:21:23.671Z,8.60
2019-06-26T13:23:31.318Z,7.55
2019-06-26T13:25:38.756Z,8.30
2019-06-26T13:27:46.484Z,8.20
2019-06-26T13:29:54.331Z,8.05
2019-06-26T13:32:02.099Z,8.48
2019-06-26T13:34:09.620Z,8.48
2019-06-26T13:36:17.034Z,7.97
2019-06-26T13:38:27.094Z,8.78
2019-06-26T13:40:34.098Z,8.35
2019-06-26T13:42:41.584Z,9.00
2019-06-26T13:45:13.579Z,8.48
2019-06-26T13:47:21.206Z,9.15
2019-06-26T13:49:28.667Z,9.05
2019-06-26T13:51:36.320Z,8.75
2019-06-26T13:53:43.925Z,9.50
2019-06-26T13:55:51.366Z,9.03
2019-06-26T13:57:58.954Z,9.20
2019-06-26T14:00:10.422Z,9.05
2019-06-26T14:02:19.928Z,9.50
2019-06-26T14:04:27.198Z,9.78
2019-06-26T14:06:35.301Z,9.70
2019-06-26T14:08:42.788Z,9.63
2019-06-26T14:10:50.332Z,9.53
2019-06-26T14:12:57.979Z,9.50
2019-06-26T14:15:06.010Z,10.05
2019-06-26T14:17:13.493Z,9.70
2019-06-26T14:19:21.110Z,9.70
2019-06-26T14:21:29.791Z,9.38
2019-06-26T14:23:38.044Z,9.35
2019-06-26T14:25:45.738Z,9.75
2019-06-26T14:27:53.989Z,9.70
2019-06-26T14:30:01.518Z,10.05
2019-06-26T14:32:08.806Z,9.85
2019-06-26T14:34:16.095Z,9.20
2019-06-26T14:36:23.653Z,10.03
2019-06-26T14:38:31.100Z,9.78
2019-06-26T14:40:38.454Z,10.15
2019-06-26T14:42:45.855Z,10.18
2019-06-26T14:44:53.436Z,10.38
2019-06-26T14:47:00.815Z,10.30
2019-06-26T14:49:08.230Z,10.25
2019-06-26T14:51:15.614Z,10.13
2019-06-26T14:53:23.901Z,9.68
2019-06-26T14:55:31.279Z,10.30
2019-06-26T14:57:39.174Z,10.65
2019-06-26T14:59:46.911Z,10.55
2019-06-26T15:01:54.378Z,10.15
2019-06-26T15:04:01.853Z,10.90
2019-06-26T15:06:16.430Z,11.10
2019-06-26T15:08:18.862Z,11.40
2019-06-26T15:10:26.518Z,10.72
2019-06-26T15:12:33.949Z,10.32
2019-06-26T15:14:42.256Z,10.43
2019-06-26T15:16:50.233Z,10.60
2019-06-26T15:18:58.125Z,10.68
2019-06-26T15:21:05.525Z,10.80
2019-06-26T15:23:12.993Z,10.40
2019-06-26T15:25:21.117Z,9.83
2019-06-26T15:27:28.614Z,10.80
2019-06-26T15:29:36.236Z,10.63
2019-06-26T15:31:44.076Z,10.82
2019-06-26T15:33:51.553Z,10.55
2019-06-26T15:35:59.222Z,10.68
2019-06-26T15:38:07.302Z,9.88
2019-06-26T15:40:15.508Z,9.93
2019-06-26T15:42:22.845Z,9.35
2019-06-26T15:44:30.372Z,9.75
2019-06-26T15:46:37.601Z,9.40
2019-06-26T15:48:44.804Z,9.30
2019-06-26T15:50:53.354Z,9.83
2019-06-26T15:53:00.861Z,9.83
2019-06-26T15:55:09.153Z,9.23
2019-06-26T15:57:16.546Z,9.13
2019-06-26T15:59:24.428Z,9.18
2019-06-26T16:01:32.633Z,9.23
2019-06-26T16:03:40.124Z,8.85
2019-06-26T16:05:47.348Z,9.43
2019-06-26T16:07:55.157Z,9.25
2019-06-26T16:10:02.964Z,9.25
2019-06-26T16:12:10.688Z,8.73
2019-06-26T16:14:18.237Z,9.30
2019-06-26T16:16:25.914Z,8.73
2019-06-26T16:18:38.368Z,9.30
2019-06-26T16:20:46.216Z,9.08
2019-06-26T16:22:53.969Z,9.83
2019-06-26T16:25:01.645Z,9.90
2019-06-26T16:27:09.371Z,8.93
2019-06-26T16:29:16.723Z,9.38
2019-06-26T16:31:24.604Z,9.58
2019-06-26T16:33:32.215Z,9.33
2019-06-26T16:35:39.581Z,9.40
2019-06-26T16:37:47.427Z,12.45
2019-06-26T16:39:56.168Z,10.93
2019-06-26T16:42:04.476Z,10.45
2019-06-26T16:44:13.150Z,9.20
2019-06-26T16:46:21.810Z,9.13
2019-06-26T16:48:30.081Z,10.13
2019-06-26T16:50:38.559Z,9.50
2019-06-26T16:52:49.526Z,9.83
2019-06-26T16:54:56.490Z,9.65
2019-06-26T16:57:04.947Z,9.48
2019-06-26T16:59:13.737Z,9.98
2019-06-26T17:01:21.339Z,9.20
2019-06-26T17:03:29.049Z,9.23
2019-06-26T17:05:37.530Z,9.50
2019-06-26T17:07:45.250Z,9.35
2019-06-26T17:09:52.820Z,10.10
2019-06-26T17:12:00.388Z,8.90
2019-06-26T17:14:08.255Z,8.73
2019-06-26T17:16:16.477Z,8.63
2019-06-26T17:18:24.652Z,8.50
2019-06-26T17:20:32.858Z,8.90
2019-06-26T17:22:40.676Z,8.50
2019-06-26T17:24:48.130Z,8.73
2019-06-26T17:26:59.285Z,8.55
2019-06-26T17:29:05.684Z,8.80
2019-06-26T17:31:13.873Z,9.25
2019-06-26T17:33:21.412Z,8.60
2019-06-26T17:35:29.223Z,8.30
2019-06-26T17:37:37.046Z,8.40
2019-06-26T17:39:44.829Z,8.23
2019-06-26T17:41:52.649Z,8.45
2019-06-26T17:44:00.305Z,8.90
2019-06-26T17:46:08.532Z,8.93
2019-06-26T17:48:16.293Z,7.95
2019-06-26T17:50:24.604Z,9.53
2019-06-26T17:52:35.611Z,9.90
2019-06-26T17:54:41.934Z,12.30
2019-06-26T17:56:50.945Z,12.00
2019-06-26T17:58:58.836Z,11.18
2019-06-26T18:01:06.833Z,10.85
2019-06-26T18:03:15.096Z,9.93
2019-06-26T18:05:22.541Z,8.58
2019-06-26T18:07:30.043Z,9.05
2019-06-26T18:09:37.637Z,8.65
2019-06-26T18:11:45.112Z,8.30
2019-06-26T18:15:54.119Z,8.45
2019-06-26T18:18:02.235Z,8.40
2019-06-26T18:20:10.377Z,8.28
2019-06-26T18:22:18.652Z,9.38
2019-06-26T18:24:26.871Z,10.00
2019-06-26T18:26:35.360Z,9.68
2019-06-26T18:28:43.270Z,10.15
2019-06-26T18:30:51.587Z,10.72
2019-06-26T18:32:59.657Z,9.78
2019-06-26T18:35:07.767Z,9.88
2019-06-26T18:37:16.806Z,9.98
2019-06-26T18:39:25.351Z,9.80
2019-06-26T18:41:43.519Z,9.05
2019-06-26T18:43:51.899Z,9.45
2019-06-26T18:45:59.941Z,9.43
2019-06-26T18:48:07.790Z,9.40
2019-06-26T18:50:15.931Z,9.03
2019-06-26T18:52:24.017Z,8.93
2019-06-26T18:54:32.090Z,9.38
2019-06-26T18:56:46.227Z,9.35
2019-06-26T18:58:57.259Z,8.83
2019-06-26T19:01:05.525Z,9.23
2019-06-26T19:03:13.395Z,9.85
2019-06-26T19:05:22.428Z,9.10
2019-06-26T19:07:31.071Z,9.68
2019-06-26T19:09:38.676Z,9.03
2019-06-26T19:11:46.549Z,9.93
2019-06-26T19:13:55.482Z,9.85
2019-06-26T19:16:04.712Z,9.43
2019-06-26T19:18:12.629Z,9.63
2019-06-26T19:20:21.346Z,9.60
2019-06-26T19:22:29.462Z,10.10
2019-06-26T19:24:37.620Z,9.55
2019-06-26T19:26:46.861Z,9.95
2019-06-26T19:28:55.080Z,10.53
2019-06-26T19:31:03.172Z,9.63
2019-06-26T19:33:11.030Z,10.68
2019-06-26T19:35:20.483Z,10.43
2019-06-26T19:37:28.455Z,9.95
2019-06-26T19:39:37.132Z,10.23
2019-06-26T19:41:44.990Z,10.45
2019-06-26T19:43:52.566Z,10.10
2019-06-26T19:46:00.718Z,10.20
2019-06-26T19:48:08.678Z,10.40
2019-06-26T19:50:17.105Z,10.58
2019-06-26T19:52:25.479Z,10.28
2019-06-26T19:54:33.813Z,10.08
2019-06-26T19:56:41.651Z,10.30
2019-06-26T19:58:49.317Z,10.38
2019-06-26T20:00:59.795Z,10.65
2019-06-26T20:03:12.099Z,10.05
2019-06-26T20:05:20.448Z,10.45
2019-06-26T20:07:28.396Z,9.63
2019-06-26T20:09:37.673Z,10.80
2019-06-26T20:11:45.641Z,9.93
2019-06-26T20:13:57.931Z,10.78
2019-06-26T20:16:08.700Z,9.98
2019-06-26T20:18:16.351Z,9.63
2019-06-26T20:20:24.362Z,10.08
2019-06-26T20:22:34.153Z,10.28
2019-06-26T20:24:44.654Z,10.32
2019-06-26T20:26:55.787Z,10.30
2019-06-26T20:29:03.644Z,9.90
2019-06-26T20:31:23.718Z,9.98
2019-06-26T20:33:31.924Z,10.48
2019-06-26T20:35:39.927Z,10.63
2019-06-26T20:37:48.119Z,10.32
2019-06-26T20:39:56.134Z,10.30
2019-06-26T20:42:03.990Z,11.18
2019-06-26T20:44:11.716Z,10.60
2019-06-26T20:46:19.591Z,11.03
2019-06-26T20:48:27.410Z,10.58
2019-06-26T20:50:35.503Z,10.43
2019-06-26T20:52:43.432Z,10.68
2019-06-26T20:55:00.962Z,10.30
2019-06-26T20:57:01.253Z,11.30
2019-06-26T20:59:21.836Z,11.33
2019-06-26T21:01:32.331Z,11.25
2019-06-26T21:03:43.660Z,11.08
2019-06-26T21:06:02.975Z,11.22
2019-06-26T21:08:13.872Z,11.12
2019-06-26T21:10:22.252Z,11.45
2019-06-26T21:12:30.186Z,11.30
2019-06-26T21:14:37.545Z,11.05
2019-06-26T21:16:44.965Z,11.08
2019-06-26T21:18:52.243Z,11.38
2019-06-26T21:21:00.091Z,11.28
2019-06-26T21:23:23.772Z,11.12
2019-06-26T21:25:33.337Z,10.80
2019-06-26T21:27:45.346Z,11.00
2019-06-26T21:29:52.689Z,10.95
2019-06-26T21:32:00.081Z,11.45
2019-06-26T21:34:07.459Z,10.63
2019-06-26T21:36:15.526Z,11.05
2019-06-26T21:38:22.718Z,10.85
2019-06-26T21:40:29.904Z,11.68
2019-06-26T21:42:37.381Z,11.48
2019-06-26T21:44:44.693Z,11.50
2019-06-26T21:46:51.949Z,11.12
2019-06-26T21:48:59.277Z,11.38
2019-06-26T21:51:06.637Z,11.12
2019-06-26T21:53:13.797Z,11.70
2019-06-26T21:55:33.747Z,11.53
2019-06-26T21:57:31.462Z,11.78
2019-06-26T21:59:38.707Z,11.75
2019-06-26T22:01:46.112Z,11.40
2019-06-26T22:03:53.574Z,11.40
2019-06-26T22:06:01.094Z,11.70
2019-06-26T22:08:13.426Z,11.88
2019-06-26T22:10:17.837Z,11.93
2019-06-26T22:12:41.671Z,11.88
2019-06-26T22:14:49.010Z,11.43
2019-06-26T22:17:01.273Z,11.80
2019-06-26T22:19:09.727Z,11.88
2019-06-26T22:21:17.086Z,11.28
2019-06-26T22:23:24.457Z,11.55
2019-06-26T22:25:31.629Z,11.65
2019-06-26T22:27:44.428Z,11.05
2019-06-26T22:29:48.802Z,12.15
2019-06-26T22:31:56.352Z,12.07
2019-06-26T22:34:04.116Z,11.75
2019-06-26T22:36:20.151Z,12.13
2019-06-26T22:38:32.095Z,13.93
2019-06-26T22:40:39.412Z,12.68
2019-06-26T22:42:46.745Z,13.85
2019-06-26T22:44:54.013Z,13.53
2019-06-26T22:47:01.349Z,13.32
2019-06-26T22:49:27.021Z,13.38
2019-06-26T22:51:34.476Z,14.05
2019-06-26T22:53:41.750Z,14.25
2019-06-26T22:56:17.248Z,14.13
2019-06-26T22:58:35.264Z,14.73
2019-06-26T23:00:42.896Z,14.87
2019-06-26T23:02:50.205Z,13.58
2019-06-26T23:05:01.019Z,14.93
2019-06-26T23:07:16.678Z,14.60
2019-06-26T23:09:24.002Z,15.05
2019-06-26T23:11:31.178Z,15.85
2019-06-26T23:13:39.902Z,15.23
2019-06-26T23:15:47.334Z,15.32
2019-06-26T23:17:54.936Z,15.40
2019-06-26T23:20:06.473Z,15.60
2019-06-26T23:22:15.894Z,16.12
2019-06-26T23:24:30.594Z,15.78
2019-06-26T23:26:48.874Z,15.45
2019-06-26T23:29:16.629Z,15.78
2019-06-26T23:31:17.121Z,15.18
2019-06-26T23:33:24.585Z,15.23
2019-06-26T23:35:32.365Z,15.38
2019-06-26T23:37:42.906Z,16.30
2019-06-26T23:39:50.591Z,16.50
2019-06-26T23:41:57.952Z,14.87
2019-06-26T23:44:05.573Z,15.48
2019-06-26T23:46:13.277Z,15.90
2019-06-26T23:48:21.029Z,15.32
2019-06-26T23:50:28.559Z,15.85
2019-06-26T23:52:35.982Z,15.15
2019-06-26T23:54:43.429Z,14.80
2019-06-26T23:56:56.392Z,14.80
2019-06-26T23:59:09.219Z,15.58
